Time;durP1;ratioP1;P1;durP2;ratioP2;P2;SDS_P1;SDS_P2;PMS_P1;PMS_P2;Temp;Humidity;BMP_temperature;BMP_pressure;BME280_temperature;BME280_humidity;BME280_pressure;Samples;Min_cycle;Max_cycle;Signal;HPM_P1;HPM_P2
2022/06/01 00:01:59;;;;;;;8.60;4.90;;;;;;;;;;10446294;28;20017;-73
2022/06/01 00:06:59;;;;;;;7.93;3.80;;;;;;;;;;10446189;28;20368;-72
2022/06/01 00:12:00;;;;;;;14.15;4.65;;;;;;;;;;10448030;28;20513;-76
2022/06/01 00:17:01;;;;;;;9.60;3.72;;;;;;;;;;10445704;28;20029;-77
2022/06/01 00:22:14;;;;;;;20.02;4.60;;;;;;;;;;10446536;28;20027;-77
2022/06/01 00:27:15;;;;;;;8.30;4.18;;;;;;;;;;10444375;28;20023;-75
2022/06/01 00:32:16;;;;;;;9.50;4.30;;;;;;;;;;10445348;28;20461;-72
2022/06/01 00:37:17;;;;;;;7.53;5.05;;;;;;;;;;10427931;28;20025;-74
2022/06/01 00:42:19;;;;;;;8.90;5.30;;;;;;;;;;10444110;28;20090;-71
2022/06/01 00:47:21;;;;;;;6.93;5.40;;;;;;;;;;10433058;28;20017;-71
2022/06/01 00:52:35;;;;;;;6.93;4.85;;;;;;;;;;10421172;28;20064;-72
2022/06/01 00:57:36;;;;;;;5.90;3.80;;;;;;;;;;10418619;28;20045;-73
2022/06/01 01:02:36;;;;;;;11.20;4.88;;;;;;;;;;10419289;28;20026;-72
2022/06/01 01:07:38;;;;;;;9.40;4.32;;;;;;;;;;10419398;28;20029;-77
2022/06/01 01:12:57;;;;;;;5.88;4.38;;;;;;;;;;10429922;28;20044;-73
2022/06/01 01:17:58;;;;;;;10.35;5.35;;;;;;;;;;10444518;28;20479;-71
2022/06/01 01:23:05;;;;;;;15.02;4.47;;;;;;;;;;10399440;28;20029;-72
2022/06/01 01:28:07;;;;;;;14.82;4.20;;;;;;;;;;10432925;28;20107;-70
2022/06/01 01:33:10;;;;;;;16.55;4.47;;;;;;;;;;10443100;28;20443;-74
2022/06/01 01:38:17;;;;;;;17.48;4.72;;;;;;;;;;10443785;28;20043;-71
2022/06/01 01:43:19;;;;;;;17.33;4.85;;;;;;;;;;10442330;28;20021;-74
2022/06/01 01:48:19;;;;;;;9.43;5.30;;;;;;;;;;10459170;28;20024;-71
2022/06/01 01:53:20;;;;;;;9.77;4.32;;;;;;;;;;10441996;28;20056;-70
2022/06/01 01:58:34;;;;;;;6.38;4.20;;;;;;;;;;10442508;28;20025;-72
2022/06/01 02:03:36;;;;;;;7.53;4.10;;;;;;;;;;10441527;28;20032;-72
2022/06/01 02:08:41;;;;;;;10.45;4.63;;;;;;;;;;10442226;28;20025;-71
2022/06/01 02:13:42;;;;;;;14.20;4.55;;;;;;;;;;10442740;28;20033;-72
2022/06/01 02:18:45;;;;;;;11.57;4.70;;;;;;;;;;10441873;28;20033;-74
2022/06/01 02:23:47;;;;;;;8.15;5.15;;;;;;;;;;10458365;28;20041;-71
2022/06/01 02:28:49;;;;;;;8.05;5.25;;;;;;;;;;10442101;28;20029;-71
2022/06/01 02:33:49;;;;;;;10.70;5.45;;;;;;;;;;10441847;28;20075;-72
2022/06/01 02:38:51;;;;;;;7.93;4.60;;;;;;;;;;10442608;28;20082;-75
2022/06/01 02:43:51;;;;;;;12.35;5.63;;;;;;;;;;10441417;28;20116;-72
2022/06/01 02:48:52;;;;;;;8.23;4.90;;;;;;;;;;10442566;28;20013;-72
2022/06/01 02:53:52;;;;;;;5.85;4.30;;;;;;;;;;10443264;28;20063;-73
2022/06/01 02:58:53;;;;;;;8.10;4.53;;;;;;;;;;10449202;28;20498;-71
2022/06/01 03:03:53;;;;;;;10.60;4.38;;;;;;;;;;10448774;28;20078;-72
2022/06/01 03:08:53;;;;;;;6.80;4.10;;;;;;;;;;10448717;28;20013;-72
2022/06/01 03:13:54;;;;;;;9.85;4.70;;;;;;;;;;10448055;28;20504;-74
2022/06/01 03:18:54;;;;;;;9.07;4.50;;;;;;;;;;10465202;28;20380;-72
2022/06/01 03:23:55;;;;;;;7.50;5.20;;;;;;;;;;10431527;28;20409;-73
2022/06/01 03:28:56;;;;;;;8.85;4.35;;;;;;;;;;10447561;28;20025;-76
2022/06/01 03:33:57;;;;;;;5.75;4.65;;;;;;;;;;10465249;28;20075;-72
2022/06/01 03:38:57;;;;;;;10.45;5.07;;;;;;;;;;10447476;28;20036;-72
2022/06/01 03:49:17;;;;;;;16.25;4.93;;;;;;;;;;10448038;28;20342;-71
2022/06/01 03:54:17;;;;;;;12.05;5.63;;;;;;;;;;10447319;28;20458;-73
2022/06/01 03:59:17;;;;;;;10.90;5.47;;;;;;;;;;10447394;28;20038;-73
2022/06/01 04:04:17;;;;;;;11.65;5.65;;;;;;;;;;10445833;28;20045;-73
2022/06/01 04:09:18;;;;;;;21.40;9.57;;;;;;;;;;10445045;28;20031;-72
2022/06/01 04:14:19;;;;;;;11.83;6.43;;;;;;;;;;10462520;28;20087;-73
2022/06/01 04:19:19;;;;;;;16.40;6.30;;;;;;;;;;10445572;28;20024;-73
2022/06/01 04:24:22;;;;;;;15.10;6.22;;;;;;;;;;10445160;28;20495;-71
2022/06/01 04:29:22;;;;;;;9.18;4.57;;;;;;;;;;10446164;28;20052;-73
2022/06/01 04:34:22;;;;;;;9.30;4.97;;;;;;;;;;10444607;28;20104;-71
2022/06/01 04:39:23;;;;;;;10.55;4.65;;;;;;;;;;10428472;28;20082;-71
2022/06/01 04:44:23;;;;;;;14.30;6.65;;;;;;;;;;10446253;28;20025;-70
2022/06/01 04:49:24;;;;;;;11.70;4.88;;;;;;;;;;10445955;28;20047;-71
2022/06/01 04:54:24;;;;;;;10.83;4.57;;;;;;;;;;10445420;28;20114;-76
2022/06/01 04:59:24;;;;;;;8.35;4.00;;;;;;;;;;10444018;28;20025;-69
2022/06/01 05:04:28;;;;;;;8.32;4.13;;;;;;;;;;10444779;28;20024;-73
2022/06/01 05:09:28;;;;;;;11.52;5.10;;;;;;;;;;10444449;28;20049;-74
2022/06/01 05:14:29;;;;;;;12.40;5.15;;;;;;;;;;10444513;28;20112;-71
2022/06/01 05:19:29;;;;;;;13.73;6.17;;;;;;;;;;10444094;28;20032;-70
2022/06/01 05:24:30;;;;;;;13.63;6.63;;;;;;;;;;10444131;28;20427;-77
2022/06/01 05:29:31;;;;;;;12.55;5.70;;;;;;;;;;10444826;28;20422;-76
2022/06/01 05:34:31;;;;;;;19.58;7.30;;;;;;;;;;10443719;28;20035;-70
2022/06/01 05:39:32;;;;;;;8.48;5.18;;;;;;;;;;10443882;28;20028;-71
2022/06/01 05:44:32;;;;;;;12.43;4.38;;;;;;;;;;10443179;28;20029;-73
2022/06/01 05:49:33;;;;;;;9.40;4.72;;;;;;;;;;10443075;28;20035;-75
2022/06/01 05:54:33;;;;;;;12.15;5.25;;;;;;;;;;10443059;28;20059;-72
2022/06/01 05:59:33;;;;;;;12.63;4.60;;;;;;;;;;10443132;28;20040;-79
2022/06/01 06:04:33;;;;;;;8.50;4.45;;;;;;;;;;10442888;28;20020;-72
2022/06/01 06:09:34;;;;;;;11.90;4.40;;;;;;;;;;10425971;28;20088;-72
2022/06/01 06:14:34;;;;;;;10.02;3.55;;;;;;;;;;10442845;28;20032;-76
2022/06/01 06:19:37;;;;;;;16.90;3.83;;;;;;;;;;10442620;28;20033;-73
2022/06/01 06:24:37;;;;;;;7.72;3.58;;;;;;;;;;10442118;28;20379;-70
2022/06/01 06:29:38;;;;;;;14.65;5.07;;;;;;;;;;10445161;28;20028;-70
2022/06/01 06:34:38;;;;;;;12.50;4.30;;;;;;;;;;10451279;28;20504;-70
2022/06/01 06:39:38;;;;;;;9.65;5.05;;;;;;;;;;10433885;28;20028;-70
2022/06/01 06:44:39;;;;;;;18.67;3.65;;;;;;;;;;10434385;28;20021;-70
2022/06/01 06:49:39;;;;;;;14.90;5.47;;;;;;;;;;10450473;28;20028;-70
2022/06/01 06:54:40;;;;;;;11.90;4.87;;;;;;;;;;10451114;28;20049;-70
2022/06/01 06:59:40;;;;;;;14.95;5.68;;;;;;;;;;10450471;28;20475;-71
2022/06/01 07:04:40;;;;;;;11.27;5.70;;;;;;;;;;10451062;28;20091;-75
2022/06/01 07:09:41;;;;;;;11.63;5.70;;;;;;;;;;10451117;28;20021;-73
2022/06/01 07:14:41;;;;;;;14.40;6.30;;;;;;;;;;10449280;28;20019;-74
2022/06/01 07:19:41;;;;;;;14.35;7.18;;;;;;;;;;10450865;28;20021;-70
2022/06/01 07:24:42;;;;;;;15.48;6.20;;;;;;;;;;10449106;28;20174;-70
2022/06/01 07:29:42;;;;;;;15.15;6.20;;;;;;;;;;10448712;28;20025;-70
2022/06/01 07:34:42;;;;;;;21.02;6.93;;;;;;;;;;10448567;28;20021;-75
2022/06/01 07:45:01;;;;;;;24.58;8.35;;;;;;;;;;10449379;28;20021;-71
2022/06/01 07:50:02;;;;;;;16.47;6.80;;;;;;;;;;10447921;28;20425;-73
2022/06/01 07:55:03;;;;;;;16.05;7.07;;;;;;;;;;10447643;28;20576;-73
2022/06/01 08:00:04;;;;;;;14.40;6.63;;;;;;;;;;10447654;28;20028;-70
2022/06/01 08:05:05;;;;;;;16.52;6.72;;;;;;;;;;10446976;28;20509;-73
2022/06/01 08:10:06;;;;;;;18.83;7.30;;;;;;;;;;10448771;28;20025;-70
2022/06/01 08:15:06;;;;;;;18.83;6.75;;;;;;;;;;10447336;28;20017;-73
2022/06/01 08:20:07;;;;;;;11.63;5.78;;;;;;;;;;10446491;28;20033;-73
2022/06/01 08:25:08;;;;;;;15.85;6.82;;;;;;;;;;10446694;28;20479;-73
2022/06/01 08:30:09;;;;;;;20.13;7.43;;;;;;;;;;10446489;28;20124;-71
2022/06/01 08:35:10;;;;;;;9.90;5.43;;;;;;;;;;10445877;28;20017;-70
2022/06/01 08:40:11;;;;;;;23.08;7.28;;;;;;;;;;10446646;28;20582;-73
2022/06/01 08:45:12;;;;;;;14.30;5.17;;;;;;;;;;10447080;28;20025;-69
2022/06/01 08:50:21;;;;;;;11.60;5.72;;;;;;;;;;10428683;28;20370;-70
2022/06/01 08:55:22;;;;;;;13.80;5.28;;;;;;;;;;10428775;28;20157;-71
2022/06/01 09:00:25;;;;;;;14.60;5.13;;;;;;;;;;10445289;28;20091;-73
2022/06/01 09:05:25;;;;;;;19.67;5.47;;;;;;;;;;10445424;28;20025;-72
2022/06/01 09:10:28;;;;;;;10.95;4.82;;;;;;;;;;10446270;28;20036;-72
2022/06/01 09:15:31;;;;;;;11.85;5.40;;;;;;;;;;10444986;28;20116;-70
2022/06/01 09:25:52;;;;;;;12.00;5.40;;;;;;;;;;10445988;28;20466;-72
2022/06/01 09:30:56;;;;;;;13.63;4.00;;;;;;;;;;10444191;28;20033;-72
2022/06/01 09:36:01;;;;;;;12.35;3.83;;;;;;;;;;10444473;28;20096;-71
2022/06/01 09:41:03;;;;;;;10.77;3.90;;;;;;;;;;10443776;28;20031;-72
2022/06/01 09:46:03;;;;;;;9.05;3.40;;;;;;;;;;10443572;28;20016;-72
2022/06/01 09:51:10;;;;;;;7.20;3.00;;;;;;;;;;10444174;28;20522;-72
2022/06/01 09:56:11;;;;;;;6.60;2.83;;;;;;;;;;10444609;28;20053;-71
2022/06/01 10:06:36;;;;;;;15.97;2.80;;;;;;;;;;10444517;28;20112;-72
2022/06/01 10:11:40;;;;;;;6.38;2.50;;;;;;;;;;10426777;28;20017;-71
2022/06/01 10:16:40;;;;;;;11.77;2.50;;;;;;;;;;10426657;28;20105;-72
2022/06/01 10:21:43;;;;;;;12.65;3.55;;;;;;;;;;10443881;28;20025;-72
2022/06/01 10:26:48;;;;;;;12.30;2.78;;;;;;;;;;10442746;28;20081;-71
2022/06/01 10:31:55;;;;;;;7.80;2.13;;;;;;;;;;10442854;28;20029;-72
2022/06/01 10:37:14;;;;;;;3.33;2.22;;;;;;;;;;10442316;28;20028;-70
2022/06/01 10:43:16;;;;;;;10.45;2.50;;;;;;;;;;10442312;28;20495;-75
2022/06/01 10:47:54;;;;;;;5.20;1.95;;;;;;;;;;10432350;28;20079;-74
2022/06/01 10:52:58;;;;;;;9.10;2.22;;;;;;;;;;10442079;28;20121;-71
2022/06/01 10:57:59;;;;;;;12.70;3.08;;;;;;;;;;10441907;28;20024;-70
2022/06/01 11:03:00;;;;;;;4.43;1.63;;;;;;;;;;10449504;28;20055;-69
2022/06/01 11:08:03;;;;;;;8.43;2.40;;;;;;;;;;10441843;28;20040;-70
2022/06/01 11:13:17;;;;;;;5.85;2.20;;;;;;;;;;10442278;28;20024;-71
2022/06/01 11:18:20;;;;;;;5.85;2.42;;;;;;;;;;10405403;28;20048;-70
2022/06/01 11:23:42;;;;;;;4.43;2.00;;;;;;;;;;10431795;28;20029;-71
2022/06/01 11:29:01;;;;;;;6.57;2.50;;;;;;;;;;10454567;28;20029;-72
2022/06/01 11:34:07;;;;;;;3.53;2.58;;;;;;;;;;10448390;28;20029;-71
2022/06/01 11:39:11;;;;;;;5.10;1.95;;;;;;;;;;10448797;28;20021;-71
2022/06/01 11:44:17;;;;;;;3.70;2.22;;;;;;;;;;10449680;28;20712;-71
2022/06/01 11:49:44;;;;;;;6.50;2.15;;;;;;;;;;10406892;28;20635;-72
2022/06/01 11:54:54;;;;;;;4.47;1.80;;;;;;;;;;10419384;28;20054;-71
2022/06/01 12:00:07;;;;;;;5.88;1.55;;;;;;;;;;10406544;28;20053;-70
2022/06/01 12:05:11;;;;;;;2.85;1.63;;;;;;;;;;10440223;28;20088;-70
2022/06/01 12:10:18;;;;;;;6.32;1.58;;;;;;;;;;10447625;28;20058;-71
2022/06/01 12:15:29;;;;;;;6.25;1.48;;;;;;;;;;10447061;28;20020;-71
2022/06/01 12:20:30;;;;;;;5.65;2.20;;;;;;;;;;10453265;28;20672;-71
2022/06/01 12:31:10;;;;;;;3.50;1.45;;;;;;;;;;10447436;28;20025;-73
2022/06/01 12:36:11;;;;;;;8.30;2.40;;;;;;;;;;10448113;28;20017;-76
2022/06/01 12:41:17;;;;;;;3.03;1.42;;;;;;;;;;10446155;28;20087;-72
2022/06/01 12:46:19;;;;;;;4.67;1.90;;;;;;;;;;10445827;28;20025;-71
2022/06/01 12:51:19;;;;;;;2.58;1.40;;;;;;;;;;10428167;28;20486;-70
2022/06/01 12:56:21;;;;;;;4.38;1.42;;;;;;;;;;10444596;28;20041;-71
2022/06/01 13:01:27;;;;;;;5.00;1.52;;;;;;;;;;10445475;28;20020;-68
2022/06/01 13:06:27;;;;;;;4.43;1.48;;;;;;;;;;10444778;28;20028;-73
2022/06/01 13:11:29;;;;;;;4.55;1.42;;;;;;;;;;10445303;28;20021;-74
2022/06/01 13:16:37;;;;;;;9.98;2.45;;;;;;;;;;10444808;28;20465;-68
2022/06/01 13:21:38;;;;;;;3.90;1.42;;;;;;;;;;10427694;28;20449;-72
2022/06/01 13:26:40;;;;;;;5.10;1.43;;;;;;;;;;10427752;28;20082;-70
2022/06/01 13:31:41;;;;;;;3.38;1.73;;;;;;;;;;10443733;28;20479;-71
2022/06/01 13:36:42;;;;;;;9.77;1.73;;;;;;;;;;10443815;28;20019;-71
2022/06/01 13:41:57;;;;;;;5.87;1.40;;;;;;;;;;10442645;28;20033;-70
2022/06/01 13:47:00;;;;;;;11.63;2.35;;;;;;;;;;10443553;28;20052;-70
2022/06/01 13:52:03;;;;;;;6.85;2.42;;;;;;;;;;10417337;28;20036;-71
2022/06/01 13:57:03;;;;;;;3.60;1.13;;;;;;;;;;10435659;28;20045;-71
2022/06/01 14:02:11;;;;;;;9.32;1.42;;;;;;;;;;10436331;28;20541;-71
2022/06/01 14:07:13;;;;;;;6.82;1.75;;;;;;;;;;10443936;28;20037;-71
2022/06/01 14:12:14;;;;;;;8.85;2.38;;;;;;;;;;10432144;28;20095;-70
2022/06/01 14:17:16;;;;;;;6.43;1.83;;;;;;;;;;10429613;28;20079;-70
2022/06/01 14:22:16;;;;;;;9.45;2.35;;;;;;;;;;10427772;28;20024;-74
2022/06/01 14:32:43;;;;;;;6.38;1.55;;;;;;;;;;10425046;28;20040;-75
2022/06/01 14:37:43;;;;;;;;;;;;;;;;;;10429923;28;20055;-73
2022/06/01 14:42:44;;;;;;;5.35;2.17;;;;;;;;;;10440863;28;20450;-71
2022/06/01 14:47:44;;;;;;;9.17;1.87;;;;;;;;;;10439080;28;20075;-70
2022/06/01 14:52:44;;;;;;;5.88;1.88;;;;;;;;;;10447145;28;20330;-69
2022/06/01 14:57:45;;;;;;;9.77;2.08;;;;;;;;;;10449769;28;20021;-69
2022/06/01 15:02:48;;;;;;;8.38;2.00;;;;;;;;;;10431296;28;20022;-70
2022/06/01 15:07:48;;;;;;;4.38;2.00;;;;;;;;;;10439818;28;20487;-70
2022/06/01 15:12:49;;;;;;;10.30;2.30;;;;;;;;;;10433245;28;20121;-73
2022/06/01 15:17:50;;;;;;;3.47;1.25;;;;;;;;;;10437639;28;20024;-69
2022/06/01 15:22:50;;;;;;;5.57;1.35;;;;;;;;;;10449646;28;20130;-69
2022/06/01 15:27:50;;;;;;;5.07;1.35;;;;;;;;;;10448206;28;20025;-71
2022/06/01 15:43:28;;;;;;;7.63;2.97;;;;;;;;;;10450292;28;20361;-71
2022/06/01 15:48:29;;;;;;;8.65;2.35;;;;;;;;;;10449468;28;20430;-70
2022/06/01 15:53:29;;;;;;;3.25;1.63;;;;;;;;;;10448106;28;20049;-70
2022/06/01 15:58:29;;;;;;;2.60;1.60;;;;;;;;;;10447551;28;20404;-70
2022/06/01 16:03:30;;;;;;;8.15;2.10;;;;;;;;;;10446788;28;20045;-70
2022/06/01 16:08:31;;;;;;;6.15;2.58;;;;;;;;;;10449015;28;20027;-70
2022/06/01 16:13:31;;;;;;;6.25;1.90;;;;;;;;;;10446177;28;20025;-73
2022/06/01 16:18:32;;;;;;;9.50;1.83;;;;;;;;;;10446678;28;20098;-70
2022/06/01 16:23:33;;;;;;;8.27;1.98;;;;;;;;;;10448256;28;20025;-70
2022/06/01 16:28:33;;;;;;;7.55;1.55;;;;;;;;;;10446098;28;20131;-70
2022/06/01 16:33:34;;;;;;;5.28;2.00;;;;;;;;;;10446325;28;20545;-73
2022/06/01 16:38:34;;;;;;;7.03;1.55;;;;;;;;;;10446363;28;20071;-70
2022/06/01 16:43:36;;;;;;;6.32;2.13;;;;;;;;;;10446078;28;20021;-70
2022/06/01 16:48:37;;;;;;;5.88;1.95;;;;;;;;;;10445560;28;20028;-72
2022/06/01 16:53:37;;;;;;;4.57;1.92;;;;;;;;;;10445249;28;20051;-70
2022/06/01 16:58:37;;;;;;;4.87;1.70;;;;;;;;;;10447027;28;20032;-70
2022/06/01 17:03:38;;;;;;;5.07;1.70;;;;;;;;;;10445027;28;20025;-70
2022/06/01 17:08:38;;;;;;;4.97;1.23;;;;;;;;;;10444610;28;20025;-70
2022/06/01 17:13:38;;;;;;;13.10;1.90;;;;;;;;;;10446092;28;20021;-74
2022/06/01 17:18:40;;;;;;;11.55;2.92;;;;;;;;;;10444783;28;20017;-70
2022/06/01 17:23:41;;;;;;;13.20;2.72;;;;;;;;;;10444391;28;20083;-70
2022/06/01 17:28:41;;;;;;;7.85;2.67;;;;;;;;;;10444156;28;20021;-70
2022/06/01 17:33:42;;;;;;;8.48;2.95;;;;;;;;;;10443978;28;20534;-70
2022/06/01 17:38:43;;;;;;;15.63;2.90;;;;;;;;;;10443483;28;20025;-74
2022/06/01 17:43:43;;;;;;;6.50;2.85;;;;;;;;;;10444112;28;20029;-70
2022/06/01 17:48:45;;;;;;;2.60;1.60;;;;;;;;;;10444458;28;20056;-71
2022/06/01 17:53:46;;;;;;;12.52;2.20;;;;;;;;;;10454196;28;20477;-73
2022/06/01 17:58:46;;;;;;;5.40;1.60;;;;;;;;;;10443651;28;20036;-70
2022/06/01 18:03:46;;;;;;;5.90;1.77;;;;;;;;;;10444460;28;20051;-70
2022/06/01 18:08:47;;;;;;;4.65;1.60;;;;;;;;;;10443441;28;20143;-70
2022/06/01 18:13:47;;;;;;;6.57;2.13;;;;;;;;;;10443261;28;20108;-75
2022/06/01 18:18:48;;;;;;;9.68;2.05;;;;;;;;;;10443272;28;20142;-74
2022/06/01 18:23:49;;;;;;;6.05;2.45;;;;;;;;;;10444618;28;20379;-73
2022/06/01 18:28:50;;;;;;;9.13;3.13;;;;;;;;;;10450649;28;20028;-74
2022/06/01 18:33:51;;;;;;;14.55;3.00;;;;;;;;;;10452626;28;20025;-74
2022/06/01 18:38:51;;;;;;;5.00;2.28;;;;;;;;;;10451098;28;20025;-70
2022/06/01 18:43:51;;;;;;;7.40;2.10;;;;;;;;;;10451154;28;20474;-71
2022/06/01 18:48:52;;;;;;;8.68;2.60;;;;;;;;;;10450884;28;20029;-74
2022/06/01 18:53:52;;;;;;;8.53;3.13;;;;;;;;;;10450468;28;20045;-70
2022/06/01 18:58:53;;;;;;;9.88;3.47;;;;;;;;;;10431239;28;20885;-75
2022/06/01 19:03:53;;;;;;;8.93;2.97;;;;;;;;;;10448980;28;20532;-71
2022/06/01 19:08:54;;;;;;;10.83;2.90;;;;;;;;;;10440116;28;20512;-70
2022/06/01 19:13:55;;;;;;;8.27;3.20;;;;;;;;;;10436746;28;20633;-71
2022/06/01 19:18:56;;;;;;;8.95;3.13;;;;;;;;;;10435676;28;20605;-79
2022/06/01 19:23:57;;;;;;;8.13;3.70;;;;;;;;;;10437535;28;20123;-74
2022/06/01 19:28:57;;;;;;;8.95;3.47;;;;;;;;;;10436447;28;20521;-72
2022/06/01 19:33:57;;;;;;;8.53;3.30;;;;;;;;;;10439403;28;20085;-69
2022/06/01 19:44:18;;;;;;;13.23;4.97;;;;;;;;;;10438107;28;20028;-71
2022/06/01 19:49:19;;;;;;;10.88;2.95;;;;;;;;;;10439068;28;20025;-71
2022/06/01 19:54:20;;;;;;;11.98;2.75;;;;;;;;;;10442002;28;20608;-73
2022/06/01 19:59:22;;;;;;;6.63;2.73;;;;;;;;;;10436139;28;20106;-74
2022/06/01 20:04:24;;;;;;;10.32;3.55;;;;;;;;;;10418660;28;20032;-73
2022/06/01 20:09:24;;;;;;;6.28;2.90;;;;;;;;;;10425034;28;20036;-76
2022/06/01 20:14:25;;;;;;;5.88;2.60;;;;;;;;;;10417181;28;20025;-72
2022/06/01 20:19:25;;;;;;;6.17;2.67;;;;;;;;;;10443278;28;20395;-70
2022/06/01 20:24:25;;;;;;;6.88;2.72;;;;;;;;;;10430820;28;20271;-70
2022/06/01 20:29:27;;;;;;;5.63;2.70;;;;;;;;;;10423198;28;20510;-71
2022/06/01 20:34:27;;;;;;;4.70;2.65;;;;;;;;;;10434833;28;20029;-70
2022/06/01 20:39:30;;;;;;;8.25;2.88;;;;;;;;;;10440054;28;20487;-72
2022/06/01 20:44:30;;;;;;;8.40;2.63;;;;;;;;;;10433197;28;20495;-70
2022/06/01 20:49:31;;;;;;;7.05;2.60;;;;;;;;;;10421668;28;20025;-71
2022/06/01 20:54:32;;;;;;;7.85;2.22;;;;;;;;;;10431090;28;20514;-71
2022/06/01 20:59:32;;;;;;;5.07;2.73;;;;;;;;;;10442970;28;20453;-70
2022/06/01 21:04:33;;;;;;;9.27;2.50;;;;;;;;;;10425871;28;20037;-73
2022/06/01 21:09:33;;;;;;;8.00;2.70;;;;;;;;;;10433369;28;20033;-71
2022/06/01 21:14:33;;;;;;;4.68;2.75;;;;;;;;;;10434401;28;20037;-74
2022/06/01 21:19:33;;;;;;;3.72;2.33;;;;;;;;;;10428656;28;20028;-71
2022/06/01 21:24:38;;;;;;;7.53;2.57;;;;;;;;;;10436506;28;20082;-70
2022/06/01 21:29:40;;;;;;;7.22;2.92;;;;;;;;;;10443566;28;20025;-71
2022/06/01 21:34:40;;;;;;;4.50;2.50;;;;;;;;;;10444367;28;20490;-73
2022/06/01 21:39:41;;;;;;;6.82;2.65;;;;;;;;;;10443461;28;20021;-74
2022/06/01 21:44:42;;;;;;;3.47;2.55;;;;;;;;;;10442706;28;20581;-72
2022/06/01 21:49:44;;;;;;;7.20;2.85;;;;;;;;;;10442805;28;20025;-75
2022/06/01 21:54:44;;;;;;;7.00;2.58;;;;;;;;;;10442503;28;20037;-73
2022/06/01 21:59:44;;;;;;;9.05;2.90;;;;;;;;;;10459355;28;20407;-74
2022/06/01 22:04:45;;;;;;;7.13;3.45;;;;;;;;;;10442053;28;20029;-72
2022/06/01 22:09:45;;;;;;;6.63;2.87;;;;;;;;;;10458916;28;20021;-73
2022/06/01 22:14:47;;;;;;;11.00;3.37;;;;;;;;;;10442623;28;20117;-76
2022/06/01 22:19:48;;;;;;;6.03;2.63;;;;;;;;;;10442086;28;20021;-71
2022/06/01 22:24:48;;;;;;;5.32;3.13;;;;;;;;;;10442572;28;20036;-77
2022/06/01 22:29:51;;;;;;;5.90;3.08;;;;;;;;;;10458649;28;20017;-72
2022/06/01 22:40:13;;;;;;;6.93;2.90;;;;;;;;;;10443773;28;20071;-75
2022/06/01 22:45:18;;;;;;;8.25;3.38;;;;;;;;;;10441743;28;20025;-73
2022/06/01 22:50:22;;;;;;;5.13;2.60;;;;;;;;;;10425096;28;20025;-72
2022/06/01 22:55:22;;;;;;;4.93;2.78;;;;;;;;;;10443109;28;20080;-72
2022/06/01 23:00:22;;;;;;;7.30;2.97;;;;;;;;;;10441250;28;20183;-69
2022/06/01 23:05:23;;;;;;;6.13;2.33;;;;;;;;;;10441235;28;20484;-73
2022/06/01 23:10:23;;;;;;;6.67;2.47;;;;;;;;;;10458587;28;20418;-70
2022/06/01 23:15:24;;;;;;;19.58;3.17;;;;;;;;;;10448521;28;20491;-73
2022/06/01 23:20:25;;;;;;;4.25;2.58;;;;;;;;;;10448889;28;20423;-70
2022/06/01 23:25:26;;;;;;;8.20;3.13;;;;;;;;;;10448768;28;20015;-74
2022/06/01 23:30:31;;;;;;;9.05;4.00;;;;;;;;;;10464381;28;20470;-71
2022/06/01 23:35:34;;;;;;;4.32;3.17;;;;;;;;;;10447952;28;20013;-75
2022/06/01 23:40:41;;;;;;;7.78;3.15;;;;;;;;;;10447681;28;20041;-74
2022/06/01 23:46:04;;;;;;;7.43;3.33;;;;;;;;;;10447689;28;20013;-73
2022/06/01 23:51:11;;;;;;;4.53;3.10;;;;;;;;;;10447012;28;20106;-71
2022/06/01 23:56:38;;;;;;;6.82;2.97;;;;;;;;;;10430445;28;20073;-71
